Time;durP1;ratioP1;P1;durP2;ratioP2;P2;SDS_P1;SDS_P2;PMS_P1;PMS_P2;Temp;Humidity;BMP_temperature;BMP_pressure;BME280_temperature;BME280_humidity;BME280_pressure;Samples;Min_cycle;Max_cycle;Signal;HPM_P1;HPM_P2
2023/08/22 00:00:32;;;;;;;1046.30;984.72;;;24.20;98.10;;;;;;5038071;28;20173;-92
2023/08/22 00:02:58;;;;;;;1049.25;987.95;;;24.30;96.70;;;;;;5038218;28;20243;-94
2023/08/22 00:05:24;;;;;;;1048.95;986.15;;;24.40;95.90;;;;;;5039132;28;20169;-94
2023/08/22 00:07:50;;;;;;;1060.63;995.28;;;24.40;96.00;;;;;;5038130;28;20275;-95
2023/08/22 00:10:16;;;;;;;1060.10;993.63;;;24.40;96.20;;;;;;5037836;28;20224;-93
2023/08/22 00:12:43;;;;;;;1069.05;998.33;;;24.40;96.70;;;;;;5037970;28;20185;-94
2023/08/22 00:15:10;;;;;;;1053.18;989.28;;;24.30;97.30;;;;;;5038327;28;20569;-92
2023/08/22 00:17:44;;;;;;;1076.90;999.15;;;24.40;97.10;;;;;;5038066;28;20192;-92
2023/08/22 00:20:11;;;;;;;1067.70;997.22;;;24.30;97.10;;;;;;5037589;28;20241;-94
2023/08/22 00:22:37;;;;;;;1058.35;993.58;;;24.20;97.70;;;;;;5038149;28;20204;-93
2023/08/22 00:25:04;;;;;;;1064.68;996.75;;;24.20;97.60;;;;;;5039277;28;20639;-94
2023/08/22 00:27:30;;;;;;;1060.68;995.80;;;24.20;97.90;;;;;;5039142;28;20256;-92
2023/08/22 00:29:57;;;;;;;1060.82;994.55;;;24.10;98.10;;;;;;5039417;28;20169;-93
2023/08/22 00:32:23;;;;;;;1058.53;994.30;;;24.10;97.80;;;;;;5039565;28;20184;-93
2023/08/22 00:34:49;;;;;;;1046.85;986.40;;;23.90;98.80;;;;;;5039734;28;20185;-93
2023/08/22 00:37:14;;;;;;;1058.22;995.92;;;23.80;98.70;;;;;;5038463;28;20200;-93
2023/08/22 00:39:40;;;;;;;1048.03;986.05;;;23.90;98.10;;;;;;5021877;28;20201;-93
2023/08/22 00:42:06;;;;;;;1042.93;981.38;;;23.90;98.20;;;;;;5043489;28;20189;-93
2023/08/22 00:44:32;;;;;;;1042.22;980.72;;;23.90;98.10;;;;;;5042612;28;20230;-93
2023/08/22 00:46:58;;;;;;;1056.68;992.58;;;23.90;98.80;;;;;;5042156;28;20197;-93
2023/08/22 00:49:24;;;;;;;1045.30;983.30;;;23.90;98.10;;;;;;5042676;28;20184;-93
2023/08/22 00:51:50;;;;;;;1059.32;995.28;;;23.90;97.90;;;;;;5043632;28;20184;-93
2023/08/22 00:54:18;;;;;;;1051.03;990.17;;;24.00;97.30;;;;;;5043037;28;20192;-95
2023/08/22 00:56:44;;;;;;;1041.18;980.35;;;23.90;97.80;;;;;;5042484;28;20196;-92
2023/08/22 00:59:10;;;;;;;1061.60;996.00;;;23.90;97.70;;;;;;5042571;28;20181;-93
2023/08/22 01:01:36;;;;;;;1035.22;975.13;;;23.80;97.50;;;;;;5042799;28;20177;-92
2023/08/22 01:04:01;;;;;;;1041.85;980.05;;;23.90;97.90;;;;;;5043720;28;20196;-92
2023/08/22 01:07:03;;;;;;;1025.50;966.72;;;23.80;98.00;;;;;;5024560;28;20177;-94
2023/08/22 01:09:35;;;;;;;1023.28;964.72;;;23.80;97.30;;;;;;5027309;28;20177;-93
2023/08/22 01:12:26;;;;;;;1030.18;971.58;;;23.80;97.80;;;;;;5050773;28;20197;-96
2023/08/22 01:15:00;;;;;;;990.47;935.72;;;23.90;96.90;;;;;;5059035;28;20194;-95
2023/08/22 01:17:27;;;;;;;1010.05;955.33;;;23.80;97.40;;;;;;5052038;28;20283;-92
2023/08/22 01:19:53;;;;;;;987.38;935.53;;;23.60;98.10;;;;;;5043669;28;20752;-93
2023/08/22 01:22:24;;;;;;;1003.30;949.70;;;23.50;97.70;;;;;;5043367;28;20225;-95
2023/08/22 01:24:50;;;;;;;987.28;934.75;;;23.60;98.10;;;;;;5043927;28;20195;-93
2023/08/22 01:27:18;;;;;;;962.47;911.55;;;23.60;98.30;;;;;;5047261;28;20271;-94
2023/08/22 01:29:55;;;;;;;970.65;920.08;;;23.40;99.50;;;;;;5046605;28;20185;-90
2023/08/22 01:32:29;;;;;;;954.30;905.60;;;23.30;99.90;;;;;;5045406;28;20172;-93
2023/08/22 01:35:01;;;;;;;961.05;911.72;;;23.30;99.90;;;;;;5049462;28;20205;-94
2023/08/22 01:37:31;;;;;;;982.20;929.88;;;23.40;99.00;;;;;;5052541;28;20209;-93
2023/08/22 01:39:58;;;;;;;964.30;915.50;;;23.60;98.10;;;;;;5045110;28;20223;-91
2023/08/22 01:42:25;;;;;;;956.85;907.50;;;23.30;99.60;;;;;;5043525;28;20180;-94
2023/08/22 01:44:51;;;;;;;953.03;905.67;;;23.30;99.80;;;;;;5041970;28;20196;-94
2023/08/22 01:47:16;;;;;;;951.83;903.72;;;23.30;99.00;;;;;;5041353;28;20188;-93
2023/08/22 01:49:42;;;;;;;932.10;886.28;;;23.10;99.90;;;;;;5042368;28;20483;-92
2023/08/22 01:52:08;;;;;;;908.13;863.70;;;23.10;99.90;;;;;;5048594;28;20196;-91
2023/08/22 01:54:38;;;;;;;917.95;874.40;;;23.20;99.90;;;;;;5055602;28;20180;-92
2023/08/22 01:57:03;;;;;;;910.83;867.50;;;23.20;99.90;;;;;;5056197;28;20220;-92
2023/08/22 01:59:29;;;;;;;934.67;887.28;;;23.30;99.80;;;;;;5056092;28;20200;-94
2023/08/22 02:01:55;;;;;;;956.03;907.63;;;23.30;99.90;;;;;;5056445;28;20200;-94
2023/08/22 02:04:20;;;;;;;956.50;908.20;;;23.30;99.40;;;;;;5055997;28;20224;-95
2023/08/22 02:06:46;;;;;;;969.38;919.55;;;23.40;99.70;;;;;;5055410;28;20200;-94
2023/08/22 02:09:13;;;;;;;958.80;909.80;;;23.50;99.30;;;;;;5055071;28;20188;-95
2023/08/22 02:11:39;;;;;;;969.20;919.70;;;23.40;99.30;;;;;;5056272;28;20208;-94
2023/08/22 02:14:04;;;;;;;963.70;914.60;;;23.40;99.00;;;;;;5056134;28;20173;-93
2023/08/22 02:16:30;;;;;;;964.65;915.65;;;23.20;99.90;;;;;;5056114;28;20227;-96
2023/08/22 02:18:56;;;;;;;958.08;909.47;;;23.30;99.90;;;;;;5055178;28;20209;-94
2023/08/22 02:21:21;;;;;;;951.78;903.47;;;23.30;99.40;;;;;;5056810;28;20188;-91
2023/08/22 02:23:47;;;;;;;970.03;920.45;;;23.20;99.40;;;;;;5056476;28;20204;-95
2023/08/22 02:26:13;;;;;;;972.05;922.92;;;23.10;99.90;;;;;;5057403;28;20181;-92
2023/08/22 02:28:38;;;;;;;935.42;889.67;;;23.00;99.90;;;;;;5056652;28;20212;-95
2023/08/22 02:31:04;;;;;;;924.22;878.45;;;22.90;99.90;;;;;;5053827;28;20189;-92
2023/08/22 02:33:29;;;;;;;919.65;875.67;;;22.90;99.90;;;;;;5048217;28;20200;-93
2023/08/22 02:35:55;;;;;;;918.90;873.95;;;23.00;99.90;;;;;;5039627;28;20181;-93
2023/08/22 02:38:21;;;;;;;926.45;879.97;;;22.90;99.90;;;;;;5020236;28;20299;-92
2023/08/22 02:40:46;;;;;;;924.97;879.03;;;22.80;99.90;;;;;;5041736;28;20173;-94
2023/08/22 02:43:12;;;;;;;932.22;886.85;;;22.80;99.90;;;;;;5039932;28;20197;-94
2023/08/22 02:45:38;;;;;;;924.15;879.05;;;22.80;99.90;;;;;;5040744;28;20592;-92
2023/08/22 02:48:04;;;;;;;924.20;879.13;;;22.80;99.90;;;;;;5040262;28;20264;-93
2023/08/22 02:50:30;;;;;;;906.90;863.67;;;22.90;99.90;;;;;;5035385;28;20809;-93
2023/08/22 02:52:55;;;;;;;935.28;890.40;;;22.90;99.90;;;;;;5020915;28;20292;-93
2023/08/22 02:55:21;;;;;;;930.50;885.30;;;23.00;99.50;;;;;;5021197;28;20593;-92
2023/08/22 02:57:47;;;;;;;928.60;883.30;;;23.00;99.10;;;;;;5021430;28;20228;-92
2023/08/22 03:00:13;;;;;;;918.70;874.67;;;23.00;99.30;;;;;;5037766;28;20244;-94
2023/08/22 03:02:39;;;;;;;928.88;883.17;;;22.90;99.70;;;;;;5039056;28;20200;-94
2023/08/22 03:05:08;;;;;;;919.30;874.70;;;22.80;99.90;;;;;;5038126;28;20212;-93
2023/08/22 03:07:34;;;;;;;925.25;880.50;;;22.70;99.90;;;;;;5020949;28;20200;-92
2023/08/22 03:09:59;;;;;;;933.40;886.40;;;22.60;99.90;;;;;;5039341;28;20173;-92
2023/08/22 03:12:25;;;;;;;901.80;858.58;;;22.50;99.90;;;;;;5021708;28;20192;-93
2023/08/22 03:14:51;;;;;;;895.05;852.72;;;22.70;99.90;;;;;;5039660;28;20220;-92
2023/08/22 03:17:16;;;;;;;908.67;865.38;;;22.70;99.90;;;;;;5040111;28;20201;-92
2023/08/22 03:19:42;;;;;;;912.42;868.92;;;22.50;99.90;;;;;;5039224;28;20204;-93
2023/08/22 03:22:08;;;;;;;904.17;860.00;;;22.50;99.90;;;;;;5022626;28;20259;-93
2023/08/22 03:24:33;;;;;;;908.55;863.80;;;22.50;99.90;;;;;;5039066;28;20212;-94
2023/08/22 03:26:59;;;;;;;898.47;856.13;;;22.50;99.90;;;;;;5038745;28;20220;-93
2023/08/22 03:29:25;;;;;;;886.85;844.90;;;22.50;99.90;;;;;;5038492;28;20177;-93
2023/08/22 03:31:50;;;;;;;893.88;851.78;;;22.50;99.90;;;;;;5039166;28;20199;-94
2023/08/22 03:34:16;;;;;;;890.90;849.53;;;22.40;99.90;;;;;;5034822;28;20235;-93
2023/08/22 03:36:42;;;;;;;887.53;846.13;;;22.40;99.90;;;;;;5019394;28;20203;-93
2023/08/22 03:39:08;;;;;;;896.80;854.33;;;22.50;99.90;;;;;;5018355;28;20269;-93
2023/08/22 03:41:33;;;;;;;887.30;845.75;;;22.40;99.90;;;;;;5018226;28;20169;-93
2023/08/22 03:43:59;;;;;;;881.28;839.90;;;22.40;99.90;;;;;;5018385;28;20201;-92
2023/08/22 03:46:25;;;;;;;886.20;844.67;;;22.40;99.90;;;;;;5019748;28;20173;-93
2023/08/22 03:48:51;;;;;;;878.95;837.63;;;22.40;99.90;;;;;;5027183;28;20272;-94
2023/08/22 03:51:16;;;;;;;898.78;856.15;;;22.30;99.90;;;;;;5037884;28;20248;-91
2023/08/22 03:53:42;;;;;;;887.67;847.28;;;22.40;99.90;;;;;;5021353;28;20196;-94
2023/08/22 03:56:07;;;;;;;877.42;837.65;;;22.30;99.90;;;;;;5038529;28;20192;-91
2023/08/22 03:58:33;;;;;;;887.28;845.38;;;22.30;99.90;;;;;;5020201;28;20299;-93
2023/08/22 04:01:03;;;;;;;851.78;813.47;;;22.30;99.90;;;;;;5037919;28;20301;-92
2023/08/22 04:03:29;;;;;;;860.65;822.20;;;22.40;99.90;;;;;;5037379;28;20250;-93
2023/08/22 04:05:55;;;;;;;840.10;802.97;;;22.40;99.90;;;;;;5036528;28;20177;-94
2023/08/22 04:08:21;;;;;;;846.15;808.83;;;22.40;99.90;;;;;;5034795;28;20352;-94
2023/08/22 04:10:47;;;;;;;834.97;798.25;;;22.40;99.90;;;;;;5019578;28;20173;-92
2023/08/22 04:13:13;;;;;;;808.38;773.83;;;22.30;99.90;;;;;;5037693;28;20177;-91
2023/08/22 04:15:39;;;;;;;836.05;799.92;;;22.40;99.90;;;;;;5040150;28;20188;-92
2023/08/22 04:18:06;;;;;;;822.60;787.10;;;22.40;99.90;;;;;;5041831;28;20188;-91
2023/08/22 04:20:32;;;;;;;831.67;795.78;;;22.30;99.90;;;;;;5042017;28;20196;-93
2023/08/22 04:22:58;;;;;;;846.20;808.60;;;22.30;99.90;;;;;;5024402;28;20177;-95
2023/08/22 04:25:23;;;;;;;829.40;792.88;;;22.30;99.90;;;;;;5024189;28;20177;-92
2023/08/22 04:27:49;;;;;;;845.47;807.40;;;22.30;99.90;;;;;;5023230;28;20667;-92
2023/08/22 04:30:15;;;;;;;821.75;786.42;;;22.30;99.90;;;;;;5040456;28;20177;-93
2023/08/22 04:32:40;;;;;;;835.58;799.53;;;22.20;99.90;;;;;;5042373;28;20173;-93
2023/08/22 04:35:07;;;;;;;798.85;766.22;;;22.20;99.90;;;;;;5043480;28;20180;-92
2023/08/22 04:37:32;;;;;;;806.90;772.67;;;22.20;99.90;;;;;;5042859;28;20264;-95
2023/08/22 04:39:58;;;;;;;905.95;861.15;;;22.10;99.90;;;;;;5043120;28;20215;-91
2023/08/22 04:42:24;;;;;;;875.13;832.60;;;21.90;99.90;;;;;;5043547;28;20185;-93
2023/08/22 04:44:50;;;;;;;879.05;837.58;;;21.90;99.90;;;;;;5042059;28;20571;-94
2023/08/22 04:47:16;;;;;;;885.05;842.67;;;22.10;99.90;;;;;;5034001;28;20208;-92
2023/08/22 04:49:41;;;;;;;897.03;853.60;;;21.90;99.90;;;;;;5052249;28;20208;-93
2023/08/22 04:52:07;;;;;;;902.00;858.03;;;21.80;99.90;;;;;;5045221;28;20247;-93
2023/08/22 04:54:33;;;;;;;883.75;841.55;;;21.70;99.90;;;;;;5044574;28;20188;-93
2023/08/22 04:56:59;;;;;;;860.03;820.63;;;21.80;99.90;;;;;;5045333;28;20351;-94
2023/08/22 04:59:25;;;;;;;823.30;786.58;;;21.90;99.90;;;;;;5044838;28;20181;-93
2023/08/22 05:01:51;;;;;;;811.97;776.67;;;21.90;99.90;;;;;;5026589;28;20192;-94
2023/08/22 05:04:17;;;;;;;811.28;776.53;;;22.10;99.90;;;;;;5043011;28;20248;-92
2023/08/22 05:06:42;;;;;;;803.67;769.35;;;22.00;99.90;;;;;;5043513;28;20173;-93
2023/08/22 05:09:09;;;;;;;809.28;774.67;;;22.10;99.90;;;;;;5045842;28;20193;-95
2023/08/22 05:11:35;;;;;;;853.85;814.72;;;22.10;99.90;;;;;;5045456;28;20582;-92
2023/08/22 05:14:02;;;;;;;859.22;819.85;;;22.00;99.90;;;;;;5046828;28;20169;-93
2023/08/22 05:16:27;;;;;;;896.78;853.33;;;22.10;99.90;;;;;;5046362;28;20622;-93
2023/08/22 05:18:53;;;;;;;909.08;863.85;;;22.10;99.90;;;;;;5044942;28;20243;-93
2023/08/22 05:21:19;;;;;;;916.65;870.25;;;22.10;99.90;;;;;;5045288;28;20578;-94
2023/08/22 05:23:44;;;;;;;917.50;871.90;;;22.10;99.90;;;;;;5044909;28;20558;-93
2023/08/22 05:26:10;;;;;;;905.40;860.67;;;22.20;99.90;;;;;;5044315;28;20174;-95
2023/08/22 05:28:35;;;;;;;923.40;877.65;;;22.30;99.90;;;;;;5045133;28;20265;-93
2023/08/22 05:31:01;;;;;;;910.38;865.72;;;22.30;99.90;;;;;;5039585;28;20196;-93
2023/08/22 05:33:27;;;;;;;918.88;874.40;;;22.40;99.90;;;;;;5044524;28;20197;-94
2023/08/22 05:35:52;;;;;;;907.33;863.45;;;22.40;99.90;;;;;;5047265;28;20546;-93
2023/08/22 05:38:18;;;;;;;902.65;858.15;;;22.40;99.90;;;;;;5048569;28;20227;-93
2023/08/22 05:40:43;;;;;;;925.60;878.92;;;22.40;99.90;;;;;;5057505;28;20180;-95
2023/08/22 05:43:09;;;;;;;909.42;863.55;;;22.40;99.90;;;;;;5042142;28;20216;-95
2023/08/22 05:45:35;;;;;;;903.53;860.60;;;22.40;99.90;;;;;;5058542;28;20189;-93
2023/08/22 05:48:00;;;;;;;921.35;877.13;;;22.50;99.90;;;;;;5046551;28;20205;-92
2023/08/22 05:50:26;;;;;;;903.03;860.30;;;22.50;99.90;;;;;;5045405;28;20255;-95
2023/08/22 05:52:52;;;;;;;900.70;857.50;;;22.60;99.90;;;;;;5043991;28;20205;-95
2023/08/22 05:55:18;;;;;;;900.80;858.28;;;22.60;99.90;;;;;;5043140;28;20181;-95
2023/08/22 05:57:43;;;;;;;917.00;873.10;;;22.60;99.90;;;;;;5044029;28;20189;-94
2023/08/22 06:00:10;;;;;;;888.60;846.47;;;22.60;99.90;;;;;;5035889;28;20301;-95
2023/08/22 06:02:35;;;;;;;920.95;876.45;;;22.70;99.90;;;;;;5008793;28;20189;-93
2023/08/22 06:05:02;;;;;;;924.00;878.97;;;22.70;99.90;;;;;;5026776;28;20212;-94
2023/08/22 06:07:28;;;;;;;929.30;883.55;;;22.80;99.90;;;;;;5027294;28;20221;-93
2023/08/22 06:09:53;;;;;;;918.25;872.63;;;22.80;99.90;;;;;;5033872;28;20194;-93
2023/08/22 06:12:19;;;;;;;906.55;862.55;;;22.80;99.90;;;;;;5028534;28;20212;-93
2023/08/22 06:14:44;;;;;;;930.72;884.47;;;22.80;99.90;;;;;;5031737;28;20780;-92
2023/08/22 06:17:10;;;;;;;921.08;876.22;;;23.00;99.90;;;;;;5033760;28;20224;-93
2023/08/22 06:19:36;;;;;;;929.05;882.53;;;23.10;99.90;;;;;;5029592;28;20695;-94
2023/08/22 06:22:02;;;;;;;933.92;887.78;;;23.20;99.80;;;;;;5028071;28;21076;-94
2023/08/22 06:24:27;;;;;;;931.95;884.75;;;23.20;99.90;;;;;;5024889;28;20213;-94
2023/08/22 06:26:53;;;;;;;920.22;874.95;;;23.40;99.50;;;;;;5027866;28;20209;-93
2023/08/22 06:29:18;;;;;;;940.85;893.00;;;23.50;97.80;;;;;;5023933;28;20252;-94
2023/08/22 06:31:44;;;;;;;917.17;870.95;;;23.50;98.00;;;;;;5027136;28;20766;-94
2023/08/22 06:34:10;;;;;;;917.20;870.55;;;23.60;97.90;;;;;;5009883;28;20181;-93
2023/08/22 06:36:36;;;;;;;928.67;882.75;;;23.50;97.90;;;;;;5021916;28;20196;-93
2023/08/22 06:39:03;;;;;;;915.95;870.58;;;23.60;98.00;;;;;;5023379;28;20225;-93
2023/08/22 06:41:29;;;;;;;926.47;880.38;;;23.80;97.40;;;;;;5030964;28;20208;-94
2023/08/22 06:43:55;;;;;;;910.05;864.75;;;23.90;97.10;;;;;;5033145;28;20224;-92
2023/08/22 06:46:21;;;;;;;949.22;901.88;;;24.00;95.90;;;;;;5027335;28;20191;-93
2023/08/22 06:48:48;;;;;;;884.33;842.17;;;24.00;95.50;;;;;;5021430;28;20297;-93
2023/08/22 06:51:14;;;;;;;896.05;853.53;;;24.20;95.00;;;;;;5021935;28;20260;-92
2023/08/22 06:53:40;;;;;;;917.55;873.15;;;24.10;93.70;;;;;;5023775;28;20749;-95
2023/08/22 06:56:05;;;;;;;858.22;819.15;;;24.10;93.40;;;;;;5026948;28;20193;-92
2023/08/22 06:58:31;;;;;;;843.20;805.55;;;24.30;92.20;;;;;;5012087;28;20221;-93
2023/08/22 07:00:57;;;;;;;836.90;799.97;;;24.40;91.80;;;;;;5020267;28;20193;-94
2023/08/22 07:03:23;;;;;;;830.60;794.53;;;24.60;92.00;;;;;;5009884;28;20217;-92
2023/08/22 07:05:52;;;;;;;843.85;806.47;;;24.80;90.90;;;;;;5025869;28;20193;-92
2023/08/22 07:08:19;;;;;;;809.08;774.35;;;24.60;91.00;;;;;;5022099;28;20474;-94
2023/08/22 07:10:45;;;;;;;802.65;768.72;;;24.70;90.90;;;;;;5021898;28;20192;-95
2023/08/22 07:13:10;;;;;;;811.28;776.30;;;24.90;90.70;;;;;;5024860;28;20180;-96
2023/08/22 07:15:36;;;;;;;804.40;770.92;;;25.10;91.10;;;;;;5022325;28;20236;-93
2023/08/22 07:18:02;;;;;;;804.35;770.13;;;25.10;89.50;;;;;;5021864;28;20282;-94
2023/08/22 07:20:28;;;;;;;839.65;802.47;;;25.20;89.50;;;;;;5023066;28;20209;-94
2023/08/22 07:22:53;;;;;;;859.92;821.30;;;25.50;87.00;;;;;;5021114;28;20189;-92
2023/08/22 07:25:19;;;;;;;908.53;864.60;;;25.50;87.30;;;;;;5024618;28;20189;-94
2023/08/22 07:27:46;;;;;;;976.38;924.53;;;25.70;86.10;;;;;;5027120;28;20259;-91
2023/08/22 07:30:12;;;;;;;982.35;930.83;;;25.90;83.80;;;;;;5019749;28;20181;-93
2023/08/22 07:32:37;;;;;;;984.03;931.53;;;26.00;84.00;;;;;;5025573;28;20276;-93
2023/08/22 07:35:03;;;;;;;995.75;941.67;;;26.00;84.50;;;;;;5026633;28;20212;-94
2023/08/22 07:37:29;;;;;;;965.92;914.92;;;26.10;83.70;;;;;;5021870;28;20837;-94
2023/08/22 07:39:56;;;;;;;985.47;932.88;;;26.20;82.70;;;;;;5022966;28;20197;-93
2023/08/22 07:42:22;;;;;;;890.15;848.90;;;26.30;82.60;;;;;;5022124;28;20615;-95
2023/08/22 07:44:47;;;;;;;891.45;850.70;;;26.40;80.20;;;;;;5025943;28;20287;-93
2023/08/22 07:47:13;;;;;;;912.30;868.63;;;26.60;79.70;;;;;;5023938;28;20205;-93
2023/08/22 07:49:39;;;;;;;868.13;828.97;;;26.60;80.20;;;;;;5023466;28;20237;-95
2023/08/22 07:52:04;;;;;;;924.47;880.78;;;26.70;77.90;;;;;;5022942;28;20181;-95
2023/08/22 07:54:30;;;;;;;910.65;867.85;;;26.80;77.50;;;;;;5026994;28;20188;-94
2023/08/22 07:56:56;;;;;;;924.72;880.33;;;27.00;77.40;;;;;;5021401;28;20213;-94
2023/08/22 07:59:21;;;;;;;935.05;888.55;;;27.20;75.30;;;;;;5024004;28;20199;-94
2023/08/22 08:01:47;;;;;;;924.08;879.60;;;27.20;74.90;;;;;;5027762;28;20188;-95
2023/08/22 08:04:13;;;;;;;941.30;895.22;;;27.30;76.70;;;;;;5023995;28;20312;-94
2023/08/22 08:06:38;;;;;;;924.35;880.45;;;27.20;74.10;;;;;;5007658;28;20197;-94
2023/08/22 08:09:04;;;;;;;950.67;903.00;;;27.30;74.90;;;;;;5005920;28;20275;-94
2023/08/22 08:11:31;;;;;;;1206.30;921.28;;;27.60;71.80;;;;;;5026342;28;20904;-93
2023/08/22 08:13:57;;;;;;;1213.05;927.38;;;27.80;70.30;;;;;;5006103;28;20864;-92
2023/08/22 08:16:23;;;;;;;1230.30;941.92;;;27.70;70.90;;;;;;5022296;28;20193;-92
2023/08/22 08:18:51;;;;;;;1485.72;961.30;;;27.80;71.90;;;;;;5016670;28;20236;-91
2023/08/22 08:21:17;;;;;;;1999.90;999.90;;;28.00;70.60;;;;;;5019241;28;20192;-91
2023/08/22 08:23:44;;;;;;;1484.53;960.15;;;28.00;69.30;;;;;;5019205;28;20579;-92
2023/08/22 08:26:10;;;;;;;1999.90;999.90;;;27.90;68.30;;;;;;5019628;28;20262;-93
2023/08/22 08:28:36;;;;;;;1999.90;999.90;;;28.00;68.90;;;;;;5021409;28;20205;-86
2023/08/22 08:31:02;;;;;;;1999.90;999.90;;;28.20;66.30;;;;;;5028608;28;20245;-92
2023/08/22 08:33:28;;;;;;;1999.90;999.90;;;28.40;66.00;;;;;;5028638;28;20231;-93
2023/08/22 08:35:54;;;;;;;1999.90;999.90;;;28.50;65.50;;;;;;5026603;28;20187;-92
2023/08/22 08:38:20;;;;;;;1999.90;999.90;;;28.70;65.10;;;;;;5008698;28;20209;-94
2023/08/22 08:40:46;;;;;;;1999.90;999.90;;;28.70;65.10;;;;;;5036820;28;20201;-92
2023/08/22 08:43:12;;;;;;;1999.90;999.90;;;28.70;64.30;;;;;;5032674;28;20196;-92
2023/08/22 08:45:39;;;;;;;1999.90;999.90;;;28.50;63.60;;;;;;5037151;28;20194;-96
2023/08/22 08:48:06;;;;;;;1490.97;965.80;;;28.50;63.80;;;;;;5033561;28;20213;-93
2023/08/22 08:50:36;;;;;;;1999.90;999.90;;;28.50;65.00;;;;;;5037139;23;21040;-91
2023/08/22 08:53:05;;;;;;;1999.90;999.90;;;29.00;63.70;;;;;;5006883;28;20268;-91
2023/08/22 08:55:37;;;;;;;1999.90;999.90;;;28.90;62.60;;;;;;4993184;28;20182;-91
2023/08/22 08:58:04;;;;;;;1999.90;999.90;;;28.80;64.10;;;;;;5012090;28;20189;-92
2023/08/22 09:00:54;;;;;;;1999.90;999.90;;;29.20;62.10;;;;;;5001948;28;20563;-92
2023/08/22 09:03:20;;;;;;;1999.90;999.90;;;29.30;60.80;;;;;;5009487;28;20228;-92
2023/08/22 09:06:00;;;;;;;1999.90;999.90;;;29.00;58.80;;;;;;5017255;28;20181;-92
2023/08/22 09:08:26;;;;;;;1999.90;999.90;;;28.90;59.70;;;;;;5021706;28;20272;-89
2023/08/22 09:11:04;;;;;;;1999.90;999.90;;;29.20;59.40;;;;;;4990043;28;20288;-91
2023/08/22 09:13:36;;;;;;;1999.90;999.90;;;29.40;59.60;;;;;;5015357;28;20221;-92
2023/08/22 09:22:05;;;;;;;1999.90;999.90;;;29.40;59.90;;;;;;4978682;26;20233;-93
2023/08/22 09:24:40;;;;;;;1999.90;999.90;;;29.90;58.50;;;;;;5007257;28;20218;-94
2023/08/22 09:27:06;;;;;;;1999.90;999.90;;;29.60;58.90;;;;;;4988874;28;20319;-90
2023/08/22 09:29:33;;;;;;;1999.90;999.90;;;29.60;56.60;;;;;;4987890;28;20213;-92
2023/08/22 09:32:06;;;;;;;1999.90;999.90;;;30.00;54.80;;;;;;4991440;28;20197;-93
2023/08/22 09:34:35;;;;;;;1999.90;999.90;;;30.20;55.80;;;;;;4987345;28;20232;-94
2023/08/22 09:37:02;;;;;;;1999.90;999.90;;;29.90;54.10;;;;;;5001155;28;20194;-93
2023/08/22 09:39:30;;;;;;;1999.90;999.90;;;30.00;50.40;;;;;;4986293;28;20206;-94
2023/08/22 09:41:57;;;;;;;1999.90;999.90;;;30.10;51.70;;;;;;4990263;28;20222;-94
2023/08/22 09:44:28;;;;;;;1999.90;999.90;;;29.80;51.40;;;;;;4989996;28;20215;-94
2023/08/22 09:46:56;;;;;;;1999.90;999.90;;;29.90;52.80;;;;;;4990615;28;20690;-92
2023/08/22 09:49:22;;;;;;;1999.90;999.90;;;29.90;55.10;;;;;;4987109;28;20269;-92
2023/08/22 09:51:50;;;;;;;1999.90;999.90;;;29.90;51.90;;;;;;4992476;28;20201;-94
2023/08/22 09:54:16;;;;;;;1999.90;999.90;;;30.10;53.40;;;;;;4989425;28;20187;-94
2023/08/22 09:56:42;;;;;;;1999.90;999.90;;;30.70;54.60;;;;;;4988106;28;20660;-93
2023/08/22 09:59:10;;;;;;;1999.90;999.90;;;30.60;52.40;;;;;;4987292;28;20266;-94
2023/08/22 10:01:41;;;;;;;1999.90;999.90;;;30.00;53.50;;;;;;5004264;28;20194;-94
2023/08/22 10:04:08;;;;;;;1999.90;999.90;;;29.90;53.40;;;;;;4988919;28;20214;-94
2023/08/22 10:06:36;;;;;;;1999.90;999.90;;;30.40;53.60;;;;;;4986626;28;20191;-93
2023/08/22 10:09:11;;;;;;;1999.90;999.90;;;30.50;52.90;;;;;;4985241;28;20206;-94
2023/08/22 10:11:51;;;;;;;1999.90;999.90;;;30.70;53.50;;;;;;4989834;28;20170;-93
2023/08/22 10:14:45;;;;;;;1999.90;999.90;;;31.20;53.00;;;;;;4991479;28;20239;-93
2023/08/22 10:17:13;;;;;;;1999.90;999.90;;;31.00;51.60;;;;;;4988870;28;20218;-93
2023/08/22 10:19:38;;;;;;;1999.90;999.90;;;31.60;50.70;;;;;;4990711;28;20282;-94
2023/08/22 10:22:09;;;;;;;1999.90;999.90;;;31.30;49.90;;;;;;4991164;28;20198;-93
2023/08/22 10:24:35;;;;;;;1999.90;999.90;;;30.90;51.90;;;;;;4987366;28;20210;-92
2023/08/22 10:27:03;;;;;;;1999.90;999.90;;;30.60;52.40;;;;;;4989441;28;20618;-93
2023/08/22 10:29:47;;;;;;;1999.90;999.90;;;31.10;52.10;;;;;;4985430;28;20190;-94
2023/08/22 10:32:18;;;;;;;1999.90;999.90;;;31.20;51.20;;;;;;5002084;28;20186;-93
2023/08/22 10:34:44;;;;;;;1999.90;999.90;;;31.60;51.30;;;;;;5001469;28;20193;-92
2023/08/22 10:37:30;;;;;;;1999.90;999.90;;;31.90;49.40;;;;;;4992309;28;20214;-92
2023/08/22 10:40:03;;;;;;;1999.90;999.90;;;31.90;50.90;;;;;;4987583;28;20281;-94
2023/08/22 10:42:29;;;;;;;1999.90;999.90;;;31.70;50.30;;;;;;4988951;28;20265;-94
2023/08/22 10:44:57;;;;;;;1999.90;999.90;;;31.90;49.20;;;;;;4990671;28;20257;-92
2023/08/22 10:47:24;;;;;;;1999.90;999.90;;;32.20;49.30;;;;;;4988697;28;20241;-93
2023/08/22 10:49:53;;;;;;;1999.90;999.90;;;32.20;49.50;;;;;;4988909;28;20194;-94
2023/08/22 10:52:33;;;;;;;1999.90;999.90;;;32.40;48.70;;;;;;4989689;28;20266;-95
2023/08/22 10:55:00;;;;;;;1999.90;999.90;;;31.90;48.20;;;;;;4992552;28;20252;-93
2023/08/22 10:57:29;;;;;;;1999.90;999.90;;;32.20;46.60;;;;;;4986619;28;20252;-94
2023/08/22 10:59:58;;;;;;;1999.90;999.90;;;32.00;48.40;;;;;;4986274;28;20198;-93
2023/08/22 11:02:34;;;;;;;1999.90;999.90;;;32.50;48.30;;;;;;4990813;28;20186;-93
2023/08/22 11:05:03;;;;;;;1999.90;999.90;;;32.30;48.50;;;;;;4988139;28;20304;-94
2023/08/22 11:07:30;;;;;;;1999.90;999.90;;;32.90;47.80;;;;;;4987136;28;20217;-94
2023/08/22 11:09:57;;;;;;;1999.90;999.90;;;33.70;45.70;;;;;;4985104;28;20190;-94
2023/08/22 11:12:24;;;;;;;1999.90;999.90;;;34.00;46.40;;;;;;4990590;28;20183;-94
2023/08/22 11:14:52;;;;;;;1999.90;999.90;;;34.10;44.80;;;;;;4993175;28;20253;-94
2023/08/22 11:17:21;;;;;;;1999.90;999.90;;;34.00;42.90;;;;;;4983936;28;20680;-95
2023/08/22 11:19:49;;;;;;;1999.90;999.90;;;34.10;42.40;;;;;;4986390;28;20198;-96
2023/08/22 11:22:15;;;;;;;1999.90;999.90;;;33.50;42.40;;;;;;4987202;28;20178;-95
2023/08/22 11:24:42;;;;;;;1999.90;999.90;;;33.60;44.20;;;;;;4986519;28;20223;-93
2023/08/22 11:27:09;;;;;;;1999.90;999.90;;;33.80;42.60;;;;;;4990013;28;20269;-95
2023/08/22 11:29:43;;;;;;;1999.90;999.90;;;33.50;44.30;;;;;;4986741;28;20659;-94
2023/08/22 11:32:24;;;;;;;1999.90;999.90;;;33.60;43.20;;;;;;4991415;28;20194;-94
2023/08/22 11:34:59;;;;;;;1999.90;999.90;;;33.80;41.60;;;;;;4989418;28;20210;-94
2023/08/22 11:37:25;;;;;;;1999.90;999.90;;;34.30;41.70;;;;;;4988489;28;20229;-94
2023/08/22 11:39:53;;;;;;;1999.90;999.90;;;34.40;42.10;;;;;;4984347;28;20783;-93
2023/08/22 11:42:20;;;;;;;1999.90;999.90;;;34.30;41.60;;;;;;4990896;28;20214;-94
2023/08/22 11:45:21;;;;;;;1999.90;999.90;;;33.60;42.80;;;;;;5002341;28;20691;-93
2023/08/22 11:47:53;;;;;;;1999.90;999.90;;;34.80;41.40;;;;;;4986157;28;20256;-93
2023/08/22 11:50:23;;;;;;;1999.90;999.90;;;34.00;42.70;;;;;;4984184;28;20287;-96
2023/08/22 11:52:53;;;;;;;1999.90;999.90;;;34.50;40.90;;;;;;4988638;28;20178;-95
2023/08/22 11:55:26;;;;;;;1999.90;999.90;;;34.60;40.90;;;;;;4986119;28;20197;-92
2023/08/22 11:57:58;;;;;;;1999.90;999.90;;;33.80;41.90;;;;;;4984125;28;20221;-94
2023/08/22 12:00:27;;;;;;;1999.90;999.90;;;34.60;41.90;;;;;;4985619;28;20288;-94
2023/08/22 12:02:54;;;;;;;1999.90;999.90;;;34.40;42.10;;;;;;4984236;28;20202;-94
2023/08/22 12:05:36;;;;;;;1999.90;999.90;;;34.20;41.80;;;;;;4987946;28;20365;-93
2023/08/22 12:08:11;;;;;;;1999.90;999.90;;;34.50;41.80;;;;;;4985951;28;20221;-93
2023/08/22 12:10:40;;;;;;;1999.90;999.90;;;34.40;41.00;;;;;;4983360;28;20205;-94